createdAt,value
2023-05-14T00:00:36.443Z,16.85
2023-05-14T00:03:03.554Z,17.10
2023-05-14T00:05:30.302Z,19.17
2023-05-14T00:07:57.012Z,18.77
2023-05-14T00:10:23.857Z,18.33
2023-05-14T00:12:51.771Z,18.10
2023-05-14T00:15:18.820Z,16.52
2023-05-14T00:17:45.620Z,17.65
2023-05-14T00:20:12.566Z,18.02
2023-05-14T00:22:40.140Z,17.73
2023-05-14T00:25:08.009Z,17.52
2023-05-14T00:30:01.564Z,16.63
2023-05-14T00:32:28.226Z,17.33
2023-05-14T00:34:54.945Z,16.50
2023-05-14T00:37:21.689Z,17.33
2023-05-14T00:39:48.802Z,18.20
2023-05-14T00:42:15.597Z,18.13
2023-05-14T00:44:42.308Z,18.45
2023-05-14T00:47:09.309Z,17.83
2023-05-14T00:49:36.243Z,19.07
2023-05-14T00:52:03.792Z,18.63
2023-05-14T00:54:30.689Z,18.83
2023-05-14T00:56:58.258Z,18.20
2023-05-14T00:59:25.921Z,18.95
2023-05-14T01:01:52.890Z,19.15
2023-05-14T01:04:19.866Z,18.43
2023-05-14T01:07:17.114Z,18.57
2023-05-14T01:09:46.730Z,18.55
2023-05-14T01:12:22.596Z,19.00
2023-05-14T01:15:02.476Z,18.95
2023-05-14T01:17:33.180Z,18.70
2023-05-14T01:20:00.642Z,19.33
2023-05-14T01:22:27.335Z,18.42
2023-05-14T01:24:54.073Z,16.73
2023-05-14T01:27:42.976Z,19.92
2023-05-14T01:30:28.175Z,19.85
2023-05-14T01:32:58.216Z,20.08
2023-05-14T01:35:29.065Z,19.40
2023-05-14T01:37:57.661Z,19.42
2023-05-14T01:40:25.483Z,19.30
2023-05-14T01:42:53.234Z,20.65
2023-05-14T01:45:24.118Z,20.30
2023-05-14T01:47:51.664Z,18.77
2023-05-14T01:50:18.700Z,19.35
2023-05-14T01:52:45.614Z,19.65
2023-05-14T01:55:12.350Z,21.17
2023-05-14T01:57:39.022Z,19.83
2023-05-14T02:00:06.996Z,19.73
2023-05-14T02:02:41.039Z,19.27
2023-05-14T02:05:11.506Z,20.48
2023-05-14T02:07:38.293Z,20.15
2023-05-14T02:10:05.696Z,20.08
2023-05-14T02:12:32.527Z,20.83
2023-05-14T02:17:27.880Z,20.48
2023-05-14T02:19:54.673Z,20.95
2023-05-14T02:22:21.416Z,20.80
2023-05-14T02:24:49.738Z,19.95
2023-05-14T02:27:22.692Z,19.88
2023-05-14T02:29:49.383Z,20.75
2023-05-14T02:32:16.144Z,20.52
2023-05-14T02:34:42.817Z,21.05
2023-05-14T02:37:09.551Z,20.83
2023-05-14T02:39:37.062Z,22.20
2023-05-14T02:42:03.879Z,20.50
2023-05-14T02:44:31.850Z,21.40
2023-05-14T02:46:58.645Z,21.80
2023-05-14T02:49:25.444Z,21.55
2023-05-14T02:51:54.267Z,24.92
2023-05-14T02:54:21.031Z,26.92
2023-05-14T02:56:47.882Z,30.48
2023-05-14T02:59:14.642Z,30.35
2023-05-14T03:01:41.939Z,27.60
2023-05-14T03:04:09.200Z,23.58
2023-05-14T03:06:35.861Z,21.35
2023-05-14T03:09:02.739Z,22.15
2023-05-14T03:11:29.555Z,21.60
2023-05-14T03:13:56.277Z,22.80
2023-05-14T03:16:23.007Z,22.05
2023-05-14T03:18:49.767Z,22.05
2023-05-14T03:21:16.605Z,22.00
2023-05-14T03:23:43.231Z,23.23
2023-05-14T03:26:10.324Z,23.10
2023-05-14T03:28:37.059Z,22.00
2023-05-14T03:31:03.877Z,22.63
2023-05-14T03:33:31.204Z,23.38
2023-05-14T03:35:57.990Z,23.98
2023-05-14T03:38:24.697Z,22.02
2023-05-14T03:40:51.380Z,23.33
2023-05-14T03:43:18.175Z,22.38
2023-05-14T03:45:44.913Z,22.05
2023-05-14T03:48:11.667Z,20.83
2023-05-14T03:50:38.785Z,21.23
2023-05-14T03:53:06.524Z,21.95
2023-05-14T03:55:33.173Z,22.05
2023-05-14T03:57:59.921Z,21.60
2023-05-14T04:00:27.398Z,20.98
2023-05-14T04:02:54.389Z,22.20
2023-05-14T04:05:23.544Z,22.35
2023-05-14T04:07:50.244Z,21.85
2023-05-14T04:10:16.967Z,21.70
2023-05-14T04:12:43.692Z,21.50
2023-05-14T04:15:10.989Z,20.67
2023-05-14T04:17:37.739Z,21.38
2023-05-14T04:20:04.983Z,22.23
2023-05-14T04:22:32.215Z,21.48
2023-05-14T04:24:58.970Z,20.92
2023-05-14T04:27:25.801Z,21.50
2023-05-14T04:29:52.494Z,21.08
2023-05-14T04:32:19.115Z,20.77
2023-05-14T04:34:46.949Z,19.73
2023-05-14T04:39:40.689Z,19.92
2023-05-14T04:42:07.887Z,19.92
2023-05-14T04:44:36.197Z,20.98
2023-05-14T04:47:02.920Z,20.42
2023-05-14T04:49:30.438Z,20.35
2023-05-14T04:51:57.195Z,19.48
2023-05-14T04:54:24.098Z,20.27
2023-05-14T04:56:51.210Z,20.17
2023-05-14T04:59:18.036Z,20.33
2023-05-14T05:01:45.873Z,21.58
2023-05-14T05:06:39.755Z,20.73
2023-05-14T05:09:06.394Z,21.13
2023-05-14T05:11:33.037Z,21.40
2023-05-14T05:13:59.743Z,21.40
2023-05-14T05:16:26.447Z,21.10
2023-05-14T05:18:53.212Z,22.15
2023-05-14T05:21:20.146Z,21.83
2023-05-14T05:23:46.848Z,22.08
2023-05-14T05:26:13.544Z,21.17
2023-05-14T05:28:40.363Z,21.58
2023-05-14T05:31:07.205Z,22.38
2023-05-14T05:33:35.068Z,21.57
2023-05-14T05:36:01.860Z,20.45
2023-05-14T05:38:28.561Z,19.60
2023-05-14T05:40:55.459Z,21.50
2023-05-14T05:43:22.185Z,19.92
2023-05-14T05:45:48.764Z,20.90
2023-05-14T05:48:15.525Z,19.52
2023-05-14T05:50:44.310Z,19.63
2023-05-14T05:53:10.971Z,19.15
2023-05-14T05:55:37.735Z,17.88
2023-05-14T05:58:04.631Z,16.80
2023-05-14T06:00:31.504Z,17.30
2023-05-14T06:02:58.185Z,17.55
2023-05-14T06:05:24.958Z,16.85
2023-05-14T06:07:53.463Z,16.48
2023-05-14T06:10:20.171Z,16.63
2023-05-14T06:12:46.860Z,16.98
2023-05-14T06:15:13.556Z,15.60
2023-05-14T06:17:40.345Z,15.10
2023-05-14T06:20:08.027Z,15.48
2023-05-14T06:22:34.996Z,15.50
2023-05-14T06:25:01.833Z,15.97
2023-05-14T06:27:28.634Z,16.20
2023-05-14T06:29:55.599Z,15.20
2023-05-14T06:32:22.357Z,15.45
2023-05-14T06:34:49.078Z,15.07
2023-05-14T06:37:15.717Z,14.88
2023-05-14T06:39:50.241Z,14.35
2023-05-14T06:42:17.925Z,14.95
2023-05-14T06:44:45.350Z,15.15
2023-05-14T06:47:12.124Z,15.77
2023-05-14T06:49:39.339Z,14.95
2023-05-14T06:52:06.453Z,14.73
2023-05-14T06:54:33.271Z,15.05
2023-05-14T06:56:59.922Z,14.23
2023-05-14T06:59:26.590Z,14.07
2023-05-14T07:01:53.327Z,13.88
2023-05-14T07:04:20.079Z,14.00
2023-05-14T07:06:46.871Z,13.25
2023-05-14T07:09:13.573Z,13.60
2023-05-14T07:11:40.275Z,11.45
2023-05-14T07:14:06.958Z,12.80
2023-05-14T07:16:33.694Z,12.23
2023-05-14T07:19:00.453Z,12.27
2023-05-14T07:21:27.965Z,12.00
2023-05-14T07:23:54.673Z,12.07
2023-05-14T07:26:21.535Z,12.13
2023-05-14T07:28:48.170Z,11.35
2023-05-14T07:31:14.870Z,11.43
2023-05-14T07:33:41.588Z,11.68
2023-05-14T07:36:08.919Z,11.45
2023-05-14T07:38:35.801Z,11.98
2023-05-14T07:41:02.873Z,11.03
2023-05-14T07:43:29.569Z,10.95
2023-05-14T07:45:56.585Z,11.75
2023-05-14T07:48:23.392Z,10.88
2023-05-14T07:50:50.176Z,11.10
2023-05-14T07:53:16.879Z,11.88
2023-05-14T07:55:45.033Z,11.77
2023-05-14T07:58:11.740Z,11.70
2023-05-14T08:00:38.442Z,12.90
2023-05-14T08:03:05.235Z,13.13
2023-05-14T08:05:33.010Z,14.20
2023-05-14T08:10:27.018Z,14.35
2023-05-14T08:12:53.939Z,13.90
2023-05-14T08:15:21.061Z,15.05
2023-05-14T08:17:47.724Z,15.03
2023-05-14T08:20:14.552Z,15.27
2023-05-14T08:22:41.396Z,14.05
2023-05-14T08:25:08.297Z,16.38
2023-05-14T08:27:35.073Z,15.88
2023-05-14T08:30:01.743Z,14.68
2023-05-14T08:32:28.525Z,15.18
2023-05-14T08:34:55.300Z,13.68
2023-05-14T08:37:21.980Z,13.73
2023-05-14T08:39:49.047Z,13.02
2023-05-14T08:42:18.552Z,14.30
2023-05-14T08:44:50.241Z,16.00
2023-05-14T08:47:21.460Z,16.95
2023-05-14T08:49:54.918Z,16.23
2023-05-14T08:52:22.845Z,16.38
2023-05-14T08:54:51.306Z,16.05
2023-05-14T08:57:18.905Z,16.08
2023-05-14T08:59:45.608Z,16.35
2023-05-14T09:02:15.086Z,16.05
2023-05-14T09:04:42.978Z,15.52
2023-05-14T09:09:36.716Z,15.60
2023-05-14T09:12:03.676Z,16.00
2023-05-14T09:14:30.376Z,16.80
2023-05-14T09:16:57.198Z,16.38
2023-05-14T09:19:24.279Z,16.08
2023-05-14T09:21:51.120Z,16.35
2023-05-14T09:24:25.982Z,16.33
2023-05-14T09:26:54.354Z,15.77
2023-05-14T09:29:21.094Z,15.50
2023-05-14T09:31:51.612Z,16.30
2023-05-14T09:34:28.723Z,15.88
2023-05-14T09:37:04.213Z,15.30
2023-05-14T09:39:31.906Z,15.35
2023-05-14T09:41:59.059Z,15.32
2023-05-14T09:44:26.176Z,15.48
2023-05-14T09:46:53.864Z,14.38
2023-05-14T09:49:21.084Z,14.68
2023-05-14T09:51:49.578Z,15.00
2023-05-14T09:54:16.909Z,13.52
2023-05-14T09:56:44.212Z,15.25
2023-05-14T09:59:11.085Z,14.75
2023-05-14T10:01:38.013Z,14.37
2023-05-14T10:04:07.683Z,15.13
2023-05-14T10:06:38.194Z,14.93
2023-05-14T10:09:09.973Z,14.00
2023-05-14T10:11:38.787Z,14.25
2023-05-14T10:14:18.015Z,14.85
2023-05-14T10:16:50.503Z,13.80
2023-05-14T10:19:20.142Z,13.95
2023-05-14T10:21:57.271Z,12.57
2023-05-14T10:24:25.012Z,12.98
2023-05-14T10:29:18.480Z,11.77
2023-05-14T10:31:55.912Z,12.35
2023-05-14T10:34:34.693Z,12.63
2023-05-14T10:37:02.865Z,13.00
2023-05-14T10:40:02.053Z,11.82
2023-05-14T10:42:35.373Z,12.85
2023-05-14T10:45:18.183Z,13.00
2023-05-14T10:47:47.026Z,12.30
2023-05-14T10:50:17.569Z,12.68
2023-05-14T10:52:46.172Z,12.40
2023-05-14T10:55:14.900Z,12.63
2023-05-14T10:57:44.101Z,13.18
2023-05-14T11:00:12.799Z,12.35
2023-05-14T11:02:44.404Z,13.35
2023-05-14T11:05:14.370Z,11.95
2023-05-14T11:07:45.807Z,12.95
2023-05-14T11:10:14.817Z,12.30
2023-05-14T11:12:46.844Z,12.23
2023-05-14T11:15:16.814Z,12.57
2023-05-14T11:17:45.223Z,12.23
2023-05-14T11:20:12.783Z,11.48
2023-05-14T11:22:41.287Z,11.65
2023-05-14T11:25:09.100Z,12.93
2023-05-14T11:30:04.092Z,11.88
2023-05-14T11:32:35.067Z,11.25
2023-05-14T11:35:01.756Z,10.98
2023-05-14T11:37:30.661Z,11.35
2023-05-14T11:40:00.684Z,10.63
2023-05-14T11:42:27.463Z,11.50
2023-05-14T11:44:54.181Z,11.10
2023-05-14T11:47:21.749Z,11.17
2023-05-14T11:49:49.189Z,10.52
2023-05-14T11:52:19.414Z,10.23
2023-05-14T11:54:46.841Z,9.90
2023-05-14T11:57:19.961Z,10.10
2023-05-14T11:59:49.069Z,9.98
2023-05-14T12:02:18.001Z,9.98
2023-05-14T12:04:49.549Z,9.93
2023-05-14T12:07:16.989Z,10.48
2023-05-14T12:09:51.730Z,10.55
2023-05-14T12:12:22.714Z,10.10
2023-05-14T12:14:50.630Z,12.02
2023-05-14T12:17:23.870Z,10.98
2023-05-14T12:19:52.135Z,9.95
2023-05-14T12:22:21.162Z,10.73
2023-05-14T12:24:58.010Z,8.60
2023-05-14T12:27:26.748Z,8.32
2023-05-14T12:30:12.848Z,7.60
2023-05-14T12:32:46.555Z,7.53
2023-05-14T12:35:13.232Z,7.93
2023-05-14T12:37:40.061Z,8.77
2023-05-14T12:40:09.488Z,8.23
2023-05-14T12:42:36.652Z,9.20
2023-05-14T12:45:07.188Z,9.95
2023-05-14T12:47:34.175Z,9.35
2023-05-14T12:50:00.876Z,9.37
2023-05-14T12:52:37.406Z,9.63
2023-05-14T12:55:06.820Z,8.43
2023-05-14T12:57:35.284Z,8.63
2023-05-14T13:00:06.196Z,9.20
2023-05-14T13:02:32.892Z,8.00
2023-05-14T13:05:02.671Z,7.60
2023-05-14T13:07:30.371Z,7.15
2023-05-14T13:09:57.379Z,8.48
2023-05-14T13:12:24.370Z,7.60
2023-05-14T13:14:51.001Z,6.47
2023-05-14T13:17:17.772Z,8.03
2023-05-14T13:19:44.449Z,6.80
2023-05-14T13:22:11.165Z,6.43
2023-05-14T13:24:37.943Z,6.20
2023-05-14T13:27:04.767Z,5.93
2023-05-14T13:29:31.738Z,5.50
2023-05-14T13:31:58.524Z,5.65
2023-05-14T13:34:25.386Z,5.55
2023-05-14T13:36:52.192Z,5.57
2023-05-14T13:39:22.694Z,5.65
2023-05-14T13:41:50.744Z,6.18
2023-05-14T13:44:17.402Z,6.50
2023-05-14T13:46:44.226Z,5.93
2023-05-14T13:49:11.148Z,5.57
2023-05-14T13:51:37.776Z,6.80
2023-05-14T13:54:04.535Z,5.60
2023-05-14T13:56:31.240Z,4.10
2023-05-14T13:58:57.984Z,4.23
2023-05-14T14:01:24.699Z,4.53
2023-05-14T14:03:51.386Z,5.17
2023-05-14T14:06:18.099Z,4.30
2023-05-14T14:08:44.828Z,4.83
2023-05-14T14:11:12.948Z,4.72
2023-05-14T14:13:40.228Z,4.13
2023-05-14T14:16:07.148Z,4.55
2023-05-14T14:18:33.926Z,4.15
2023-05-14T14:21:00.766Z,4.30
2023-05-14T14:23:27.446Z,4.80
2023-05-14T14:25:54.176Z,4.40
2023-05-14T14:28:20.834Z,4.30
2023-05-14T14:30:47.650Z,4.80
2023-05-14T14:33:14.498Z,4.47
2023-05-14T14:35:41.226Z,4.38
2023-05-14T14:38:07.885Z,3.70
2023-05-14T14:40:34.834Z,4.85
2023-05-14T14:43:02.263Z,4.70
2023-05-14T14:45:29.137Z,4.20
2023-05-14T14:48:26.325Z,3.97
2023-05-14T14:50:54.705Z,4.05
2023-05-14T14:53:22.222Z,4.95
2023-05-14T14:55:49.903Z,5.28
2023-05-14T14:58:18.104Z,4.68
2023-05-14T15:00:45.606Z,4.25
2023-05-14T15:03:12.515Z,3.90
2023-05-14T15:05:39.336Z,5.00
2023-05-14T15:08:06.198Z,4.50
2023-05-14T15:10:33.166Z,4.40
2023-05-14T15:13:00.052Z,5.10
2023-05-14T15:15:26.750Z,4.40
2023-05-14T15:17:53.440Z,3.28
2023-05-14T15:20:20.182Z,3.17
2023-05-14T15:22:46.943Z,4.50
2023-05-14T15:25:13.600Z,4.10
2023-05-14T15:27:40.433Z,7.13
2023-05-14T15:30:07.791Z,8.25
2023-05-14T15:32:34.613Z,8.70
2023-05-14T15:35:01.421Z,8.50
2023-05-14T15:37:28.300Z,10.15
2023-05-14T15:39:55.018Z,9.52
2023-05-14T15:42:21.707Z,9.83
2023-05-14T15:44:48.305Z,9.48
2023-05-14T15:47:15.153Z,9.00
2023-05-14T15:49:41.945Z,7.80
2023-05-14T15:52:08.563Z,8.37
2023-05-14T15:54:35.345Z,8.55
2023-05-14T15:57:02.062Z,7.40
2023-05-14T15:59:28.748Z,8.20
2023-05-14T16:01:55.854Z,8.63
2023-05-14T16:04:22.583Z,8.60
2023-05-14T16:06:49.340Z,8.87
2023-05-14T16:09:16.027Z,9.07
2023-05-14T16:11:42.672Z,8.47
2023-05-14T16:14:09.431Z,9.57
2023-05-14T16:16:36.848Z,8.77
2023-05-14T16:19:03.585Z,9.25
2023-05-14T16:21:30.456Z,9.37
2023-05-14T16:23:57.235Z,10.17
2023-05-14T16:26:23.897Z,9.40
2023-05-14T16:28:50.638Z,8.82
2023-05-14T16:31:17.548Z,8.87
2023-05-14T16:33:44.215Z,9.27
2023-05-14T16:36:11.099Z,9.35
2023-05-14T16:38:41.566Z,9.57
2023-05-14T16:41:14.946Z,8.13
2023-05-14T16:43:41.659Z,8.95
2023-05-14T16:46:08.552Z,8.77
2023-05-14T16:48:35.243Z,9.60
2023-05-14T16:51:01.984Z,8.82
2023-05-14T16:53:28.643Z,9.90
2023-05-14T16:55:55.473Z,10.45
2023-05-14T16:58:22.175Z,10.18
2023-05-14T17:00:48.883Z,10.15
2023-05-14T17:03:15.640Z,9.52
2023-05-14T17:05:42.837Z,10.23
2023-05-14T17:08:09.552Z,9.98
2023-05-14T17:10:36.340Z,10.48
2023-05-14T17:13:03.276Z,10.77
2023-05-14T17:15:30.077Z,10.10
2023-05-14T17:17:56.811Z,10.60
2023-05-14T17:20:23.570Z,10.45
2023-05-14T17:22:50.950Z,10.25
2023-05-14T17:25:17.773Z,11.30
2023-05-14T17:27:44.530Z,10.43
2023-05-14T17:30:11.566Z,10.23
2023-05-14T17:32:38.340Z,10.02
2023-05-14T17:35:05.722Z,10.30
2023-05-14T17:37:32.422Z,10.13
2023-05-14T17:39:59.204Z,9.68
2023-05-14T17:42:25.896Z,9.40
2023-05-14T17:44:53.520Z,9.85
2023-05-14T17:47:20.903Z,8.93
2023-05-14T17:49:47.863Z,8.88
2023-05-14T17:52:14.564Z,9.13
2023-05-14T17:54:41.238Z,8.95
2023-05-14T17:57:08.271Z,9.00
2023-05-14T17:59:35.083Z,9.50
2023-05-14T18:02:01.800Z,8.43
2023-05-14T18:04:28.503Z,9.73
2023-05-14T18:06:55.273Z,8.65
2023-05-14T18:09:22.028Z,8.07
2023-05-14T18:11:48.676Z,7.72
2023-05-14T18:14:15.534Z,7.18
2023-05-14T18:16:42.209Z,8.40
2023-05-14T18:19:09.150Z,7.22
2023-05-14T18:21:36.035Z,6.83
2023-05-14T18:24:02.753Z,7.15
2023-05-14T18:26:30.183Z,7.95
2023-05-14T18:28:58.238Z,7.15
2023-05-14T18:31:27.426Z,7.55
2023-05-14T18:33:54.389Z,7.68
2023-05-14T18:36:21.222Z,6.33
2023-05-14T18:38:47.904Z,6.80
2023-05-14T18:41:14.557Z,7.13
2023-05-14T18:43:41.524Z,6.50
2023-05-14T18:46:08.479Z,7.07
2023-05-14T18:48:35.230Z,6.67
2023-05-14T18:51:01.914Z,7.03
2023-05-14T18:53:29.327Z,6.95
2023-05-14T18:55:56.205Z,6.68
2023-05-14T18:58:23.009Z,7.47
2023-05-14T19:00:49.640Z,7.70
2023-05-14T19:03:16.440Z,7.63
2023-05-14T19:05:43.224Z,7.25
2023-05-14T19:08:09.923Z,7.60
2023-05-14T19:10:36.608Z,8.02
2023-05-14T19:13:03.574Z,7.85
2023-05-14T19:15:30.542Z,8.23
2023-05-14T19:17:57.343Z,8.43
2023-05-14T19:20:24.321Z,8.20
2023-05-14T19:22:51.054Z,7.93
2023-05-14T19:25:17.782Z,7.78
2023-05-14T19:27:45.525Z,7.95
2023-05-14T19:30:12.998Z,7.65
2023-05-14T19:32:39.674Z,8.18
2023-05-14T19:35:06.598Z,7.75
2023-05-14T19:37:33.410Z,8.27
2023-05-14T19:40:00.279Z,8.02
2023-05-14T19:42:26.935Z,7.65
2023-05-14T19:44:54.288Z,7.38
2023-05-14T19:47:21.064Z,8.32
2023-05-14T19:49:47.745Z,8.10
2023-05-14T19:52:14.390Z,8.00
2023-05-14T19:54:41.074Z,8.15
2023-05-14T19:57:07.757Z,8.48
2023-05-14T19:59:34.821Z,8.50
2023-05-14T20:02:02.235Z,7.97
2023-05-14T20:04:28.920Z,8.52
2023-05-14T20:06:56.862Z,7.85
2023-05-14T20:11:50.402Z,7.97
2023-05-14T20:14:17.055Z,8.10
2023-05-14T20:16:43.830Z,8.60
2023-05-14T20:19:11.050Z,8.73
2023-05-14T20:21:37.779Z,9.30
2023-05-14T20:24:04.650Z,8.80
2023-05-14T20:26:31.345Z,8.43
2023-05-14T20:28:58.058Z,9.13
2023-05-14T20:31:24.761Z,9.57
2023-05-14T20:33:51.421Z,9.85
2023-05-14T20:36:18.482Z,9.63
2023-05-14T20:38:45.219Z,10.43
2023-05-14T20:41:12.112Z,10.73
2023-05-14T20:43:38.749Z,10.60
2023-05-14T20:46:07.212Z,11.02
2023-05-14T20:48:33.934Z,10.57
2023-05-14T20:51:01.700Z,11.18
2023-05-14T20:53:28.766Z,11.40
2023-05-14T20:55:55.506Z,11.03
2023-05-14T20:58:22.249Z,11.07
2023-05-14T21:00:48.906Z,11.60
2023-05-14T21:03:15.885Z,11.43
2023-05-14T21:05:43.789Z,12.20
2023-05-14T21:10:37.728Z,11.98
2023-05-14T21:13:04.456Z,13.07
2023-05-14T21:15:31.259Z,12.95
2023-05-14T21:17:58.110Z,12.88
2023-05-14T21:20:24.880Z,12.60
2023-05-14T21:22:51.544Z,13.65
2023-05-14T21:25:18.439Z,13.50
2023-05-14T21:27:45.083Z,13.52
2023-05-14T21:30:12.499Z,14.32
2023-05-14T21:32:39.305Z,14.65
2023-05-14T21:35:06.258Z,13.77
2023-05-14T21:37:33.260Z,14.43
2023-05-14T21:40:00.044Z,15.57
2023-05-14T21:42:26.711Z,15.68
2023-05-14T21:44:53.351Z,15.38
2023-05-14T21:47:21.106Z,15.90
2023-05-14T21:49:47.722Z,15.13
2023-05-14T21:52:14.522Z,17.20
2023-05-14T21:54:41.164Z,17.08
2023-05-14T21:57:07.824Z,16.83
2023-05-14T21:59:35.477Z,17.20
2023-05-14T22:04:31.908Z,17.45
2023-05-14T22:06:58.623Z,17.85
2023-05-14T22:09:25.798Z,18.63
2023-05-14T22:11:52.445Z,18.33
2023-05-14T22:14:19.103Z,18.42
2023-05-14T22:16:45.795Z,18.48
2023-05-14T22:19:12.747Z,17.13
2023-05-14T22:21:39.441Z,18.73
2023-05-14T22:24:06.394Z,18.33
2023-05-14T22:26:33.477Z,18.63
2023-05-14T22:29:00.127Z,18.43
2023-05-14T22:31:26.954Z,17.85
2023-05-14T22:33:53.737Z,19.48
2023-05-14T22:36:20.540Z,18.20
2023-05-14T22:38:47.389Z,18.85
2023-05-14T22:41:14.122Z,18.17
2023-05-14T22:43:40.858Z,18.08
2023-05-14T22:46:07.581Z,19.80
2023-05-14T22:48:34.291Z,18.30
2023-05-14T22:51:00.999Z,19.85
2023-05-14T22:53:27.711Z,18.73
2023-05-14T22:55:54.427Z,18.05
2023-05-14T22:58:21.088Z,18.52
2023-05-14T23:00:47.980Z,19.13
2023-05-14T23:03:14.637Z,18.13
2023-05-14T23:05:41.411Z,18.15
2023-05-14T23:08:08.129Z,16.95
2023-05-14T23:10:35.583Z,17.80
2023-05-14T23:13:02.348Z,18.50
2023-05-14T23:15:29.141Z,18.45
2023-05-14T23:17:55.982Z,18.92
2023-05-14T23:20:22.726Z,18.23
2023-05-14T23:22:49.580Z,17.52
2023-05-14T23:25:16.227Z,18.48
2023-05-14T23:27:42.911Z,18.08
2023-05-14T23:30:10.225Z,18.30
2023-05-14T23:32:36.983Z,17.17
2023-05-14T23:35:03.989Z,17.58
2023-05-14T23:37:30.749Z,18.83
2023-05-14T23:39:57.382Z,18.58
2023-05-14T23:42:24.777Z,18.77
2023-05-14T23:44:51.468Z,17.85
2023-05-14T23:47:18.147Z,18.63
2023-05-14T23:49:44.945Z,19.08
2023-05-14T23:52:11.620Z,19.65
2023-05-14T23:54:38.912Z,18.77
2023-05-14T23:57:05.818Z,18.38
2023-05-14T23:59:32.512Z,18.75
